createdAt,value
2018-08-09T00:00:07.892Z,2.47
2018-08-09T00:05:01.286Z,2.33
2018-08-09T00:09:54.664Z,2.30
2018-08-09T00:14:48.155Z,2.27
2018-08-09T00:19:41.491Z,2.45
2018-08-09T00:24:34.876Z,2.50
2018-08-09T00:29:28.203Z,2.00
2018-08-09T00:34:21.917Z,2.42
2018-08-09T00:39:15.289Z,2.12
2018-08-09T00:44:09.471Z,2.35
2018-08-09T00:49:02.900Z,2.08
2018-08-09T00:53:56.276Z,2.30
2018-08-09T00:58:49.632Z,2.12
2018-08-09T01:03:42.995Z,2.10
2018-08-09T01:08:36.377Z,2.33
2018-08-09T01:13:29.758Z,2.40
2018-08-09T01:18:23.188Z,2.08
2018-08-09T01:23:16.520Z,2.10
2018-08-09T01:28:09.896Z,1.93
2018-08-09T01:33:03.518Z,1.98
2018-08-09T01:37:56.895Z,2.47
2018-08-09T01:44:00.743Z,2.50
2018-08-09T01:48:55.004Z,2.75
2018-08-09T01:53:48.903Z,2.10
2018-08-09T01:58:42.303Z,2.00
2018-08-09T02:03:35.699Z,2.40
2018-08-09T02:08:29.104Z,2.17
2018-08-09T02:13:23.046Z,2.05
2018-08-09T02:18:16.421Z,2.07
2018-08-09T02:23:09.795Z,2.60
2018-08-09T02:28:03.263Z,2.52
2018-08-09T02:32:56.627Z,2.87
2018-08-09T02:37:50.002Z,2.35
2018-08-09T02:42:43.377Z,2.77
2018-08-09T02:47:36.739Z,2.70
2018-08-09T02:52:30.150Z,2.72
2018-08-09T02:57:23.548Z,2.83
2018-08-09T03:02:16.938Z,2.98
2018-08-09T03:07:10.338Z,2.98
2018-08-09T03:12:03.784Z,3.17
2018-08-09T03:16:57.144Z,3.25
2018-08-09T03:21:50.494Z,2.75
2018-08-09T03:26:43.883Z,2.60
2018-08-09T03:31:37.242Z,2.60
2018-08-09T03:36:30.609Z,2.90
2018-08-09T03:41:23.951Z,2.62
2018-08-09T03:46:17.307Z,2.90
2018-08-09T03:51:10.674Z,3.00
2018-08-09T03:56:04.362Z,3.15
2018-08-09T04:00:57.737Z,3.62
2018-08-09T04:05:51.063Z,3.27
2018-08-09T04:10:44.385Z,2.90
2018-08-09T04:15:37.741Z,3.27
2018-08-09T04:20:31.102Z,3.50
2018-08-09T04:25:24.465Z,3.20
2018-08-09T04:30:17.836Z,2.80
2018-08-09T04:35:11.195Z,2.80
2018-08-09T04:40:04.598Z,2.80
2018-08-09T04:45:04.627Z,2.87
2018-08-09T04:49:57.962Z,3.10
2018-08-09T04:54:51.318Z,2.60
2018-08-09T04:59:44.657Z,2.87
2018-08-09T05:04:38.016Z,2.98
2018-08-09T05:09:32.485Z,2.80
2018-08-09T05:14:25.878Z,3.15
2018-08-09T05:19:20.882Z,3.22
2018-08-09T05:24:15.636Z,3.20
2018-08-09T05:29:10.802Z,3.10
2018-08-09T05:34:04.800Z,3.60
2018-08-09T05:38:58.158Z,3.50
2018-08-09T05:43:51.493Z,3.40
2018-08-09T05:48:44.845Z,3.70
2018-08-09T05:53:38.176Z,3.42
2018-08-09T05:58:31.624Z,3.35
2018-08-09T06:03:24.926Z,3.80
2018-08-09T06:08:18.256Z,3.95
2018-08-09T06:13:18.923Z,3.95
2018-08-09T06:18:19.923Z,4.20
2018-08-09T06:23:18.467Z,4.40
2018-08-09T06:28:16.611Z,3.72
2018-08-09T06:33:15.885Z,3.80
2018-08-09T06:38:09.308Z,4.37
2018-08-09T06:43:03.280Z,3.92
2018-08-09T06:48:01.108Z,3.85
2018-08-09T06:52:58.665Z,4.40
2018-08-09T06:57:56.165Z,3.90
2018-08-09T07:02:55.247Z,4.28
2018-08-09T07:07:53.381Z,4.87
2018-08-09T07:12:52.806Z,5.60
2018-08-09T07:17:50.658Z,5.20
2018-08-09T07:22:50.040Z,5.05
2018-08-09T07:27:45.831Z,5.35
2018-08-09T07:32:40.061Z,6.12
2018-08-09T07:37:38.705Z,6.00
2018-08-09T07:42:37.058Z,5.33
2018-08-09T07:47:30.572Z,5.45
2018-08-09T07:52:26.107Z,6.25
2018-08-09T07:57:20.986Z,6.28
2018-08-09T08:02:14.444Z,6.47
2018-08-09T08:07:13.172Z,5.60
2018-08-09T08:12:14.184Z,5.87
2018-08-09T08:17:09.338Z,5.40
2018-08-09T08:22:02.715Z,5.83
2018-08-09T08:26:56.068Z,5.55
2018-08-09T08:31:52.898Z,5.22
2018-08-09T08:36:46.277Z,6.40
2018-08-09T08:41:39.835Z,5.42
2018-08-09T08:46:33.268Z,7.08
2018-08-09T08:51:31.244Z,6.37
2018-08-09T08:56:24.944Z,6.80
2018-08-09T09:01:18.408Z,6.75
2018-08-09T09:06:11.836Z,6.60
2018-08-09T09:11:05.270Z,7.62
2018-08-09T09:15:58.677Z,7.53
2018-08-09T09:20:52.031Z,7.92
2018-08-09T09:25:45.392Z,6.15
2018-08-09T09:30:38.744Z,6.83
2018-08-09T09:35:40.577Z,6.55
2018-08-09T09:40:39.532Z,6.83
2018-08-09T09:45:37.081Z,7.25
2018-08-09T09:50:30.528Z,7.08
2018-08-09T09:55:23.883Z,6.75
2018-08-09T10:00:22.910Z,6.78
2018-08-09T10:05:16.374Z,6.22
2018-08-09T10:10:11.257Z,6.50
2018-08-09T10:15:05.633Z,5.65
2018-08-09T10:20:04.524Z,6.12
2018-08-09T10:25:02.895Z,6.08
2018-08-09T10:29:56.612Z,6.65
2018-08-09T10:34:50.621Z,6.65
2018-08-09T10:39:44.361Z,6.62
2018-08-09T10:44:38.802Z,6.40
2018-08-09T10:49:32.215Z,6.40
2018-08-09T10:54:26.856Z,6.45
2018-08-09T10:59:20.266Z,6.12
2018-08-09T11:04:14.231Z,6.25
2018-08-09T11:09:10.735Z,5.80
2018-08-09T11:14:04.470Z,6.10
2018-08-09T11:18:58.217Z,5.60
2018-08-09T11:23:51.919Z,5.90
2018-08-09T11:28:45.300Z,5.33
2018-08-09T11:33:38.964Z,5.62
2018-08-09T11:38:32.315Z,5.83
2018-08-09T11:43:25.655Z,5.67
2018-08-09T11:48:19.039Z,5.65
2018-08-09T11:53:12.590Z,5.70
2018-08-09T11:58:06.400Z,5.17
2018-08-09T12:03:00.433Z,6.15
2018-08-09T12:07:53.938Z,6.15
2018-08-09T12:12:47.329Z,6.22
2018-08-09T12:17:40.694Z,5.62
2018-08-09T12:22:34.185Z,5.78
2018-08-09T12:27:27.588Z,6.22
2018-08-09T12:32:21.084Z,6.22
2018-08-09T12:37:14.503Z,6.70
2018-08-09T12:42:08.034Z,6.28
2018-08-09T12:47:01.464Z,5.90
2018-08-09T12:51:54.988Z,6.42
2018-08-09T12:56:48.364Z,5.53
2018-08-09T13:01:41.716Z,5.08
2018-08-09T13:06:35.053Z,4.75
2018-08-09T13:11:28.556Z,4.20
2018-08-09T13:16:24.204Z,4.30
2018-08-09T13:21:18.234Z,4.33
2018-08-09T13:26:12.143Z,5.33
2018-08-09T13:31:05.697Z,5.15
2018-08-09T13:35:59.158Z,5.67
2018-08-09T13:40:52.612Z,5.03
2018-08-09T13:45:46.051Z,4.97
2018-08-09T13:50:39.944Z,5.08
2018-08-09T13:55:33.345Z,4.47
2018-08-09T14:00:26.816Z,4.67
2018-08-09T14:05:20.194Z,4.72
2018-08-09T14:10:13.692Z,4.17
2018-08-09T14:15:08.547Z,4.00
2018-08-09T14:20:01.927Z,4.03
2018-08-09T14:24:57.859Z,3.87
2018-08-09T14:29:51.373Z,4.12
2018-08-09T14:34:44.831Z,3.85
2018-08-09T14:39:38.279Z,3.65
2018-08-09T14:44:31.641Z,3.72
2018-08-09T14:49:25.147Z,3.40
2018-08-09T14:54:18.541Z,3.47
2018-08-09T14:59:12.575Z,3.77
2018-08-09T15:04:06.433Z,3.37
2018-08-09T15:08:59.874Z,3.25
2018-08-09T15:13:54.209Z,3.33
2018-08-09T15:18:47.696Z,3.67
2018-08-09T15:23:41.106Z,3.27
2018-08-09T15:28:34.564Z,3.83
2018-08-09T15:33:28.000Z,3.58
2018-08-09T15:38:21.458Z,3.45
2018-08-09T15:43:14.980Z,2.75
2018-08-09T15:48:08.430Z,3.45
2018-08-09T15:53:01.890Z,3.25
2018-08-09T15:57:55.327Z,2.92
2018-08-09T16:02:48.799Z,2.80
2018-08-09T16:07:42.573Z,2.70
2018-08-09T16:12:36.575Z,2.90
2018-08-09T16:17:29.985Z,3.15
2018-08-09T16:22:23.397Z,3.37
2018-08-09T16:27:16.784Z,3.60
2018-08-09T16:32:10.262Z,3.10
2018-08-09T16:37:03.704Z,3.02
2018-08-09T16:41:57.174Z,2.90
2018-08-09T16:46:50.669Z,3.30
2018-08-09T16:51:44.056Z,3.05
2018-08-09T16:56:37.491Z,2.50
2018-08-09T17:01:30.848Z,2.47
2018-08-09T17:06:24.316Z,1.90
2018-08-09T17:11:17.778Z,1.50
2018-08-09T17:16:11.279Z,1.72
2018-08-09T17:21:04.782Z,1.50
2018-08-09T17:25:58.203Z,1.82
2018-08-09T17:30:51.630Z,1.60
2018-08-09T17:35:44.994Z,1.30
2018-08-09T17:40:38.399Z,1.27
2018-08-09T17:45:33.775Z,1.42
2018-08-09T17:50:27.152Z,1.52
2018-08-09T17:55:20.545Z,1.52
2018-08-09T18:00:20.696Z,1.20
2018-08-09T18:05:15.030Z,1.40
2018-08-09T18:10:17.585Z,1.22
2018-08-09T18:15:11.054Z,1.47
2018-08-09T18:20:11.221Z,1.10
2018-08-09T18:25:06.415Z,1.10
2018-08-09T18:29:59.918Z,1.10
2018-08-09T18:34:53.332Z,1.25
2018-08-09T18:39:46.738Z,6.42
2018-08-09T18:44:40.194Z,1.12
2018-08-09T18:49:33.585Z,1.50
2018-08-09T18:54:26.991Z,1.67
2018-08-09T18:59:20.449Z,1.57
2018-08-09T19:04:13.890Z,1.70
2018-08-09T19:09:09.554Z,1.62
2018-08-09T19:14:03.072Z,1.57
2018-08-09T19:18:56.556Z,1.40
2018-08-09T19:23:49.967Z,14.73
2018-08-09T19:28:43.420Z,1.20
2018-08-09T19:33:36.846Z,1.30
2018-08-09T19:38:30.282Z,1.10
2018-08-09T19:43:23.792Z,1.50
2018-08-09T19:48:17.875Z,1.15
2018-08-09T19:53:11.273Z,1.30
2018-08-09T19:58:04.882Z,1.20
2018-08-09T20:02:58.335Z,1.40
2018-08-09T20:07:51.914Z,1.22
2018-08-09T20:12:46.118Z,1.50
2018-08-09T20:17:39.657Z,1.40
2018-08-09T20:22:33.039Z,1.52
2018-08-09T20:27:26.409Z,1.52
2018-08-09T20:32:19.851Z,1.50
2018-08-09T20:37:13.268Z,1.32
2018-08-09T20:42:06.762Z,2.20
2018-08-09T20:47:00.247Z,1.50
2018-08-09T20:51:53.876Z,1.40
2018-08-09T20:56:47.367Z,1.20
2018-08-09T21:01:40.766Z,1.00
2018-08-09T21:06:34.258Z,1.05
2018-08-09T21:11:27.753Z,0.68
2018-08-09T21:16:21.199Z,0.70
2018-08-09T21:21:14.576Z,1.20
2018-08-09T21:26:08.098Z,0.73
2018-08-09T21:31:01.551Z,0.70
2018-08-09T21:35:54.949Z,0.60
2018-08-09T21:40:48.417Z,0.80
2018-08-09T21:45:41.853Z,0.60
2018-08-09T21:50:35.317Z,0.50
2018-08-09T21:55:28.699Z,0.50
2018-08-09T22:01:00.035Z,0.55
2018-08-09T22:05:59.195Z,0.70
2018-08-09T22:10:58.280Z,0.68
2018-08-09T22:15:57.436Z,0.70
2018-08-09T22:20:56.425Z,0.95
2018-08-09T22:25:49.759Z,0.82
2018-08-09T22:30:43.160Z,0.70
2018-08-09T22:35:36.557Z,1.00
2018-08-09T22:40:29.976Z,0.80
2018-08-09T22:45:23.362Z,0.90
2018-08-09T22:50:16.817Z,0.65
2018-08-09T22:55:10.248Z,0.90
2018-08-09T23:00:06.390Z,0.70
2018-08-09T23:04:59.752Z,0.70
2018-08-09T23:09:53.177Z,0.70
2018-08-09T23:14:46.526Z,1.15
2018-08-09T23:19:40.497Z,0.70
2018-08-09T23:24:33.896Z,0.90
2018-08-09T23:29:27.217Z,1.02
2018-08-09T23:34:20.650Z,1.00
2018-08-09T23:39:14.090Z,1.20
2018-08-09T23:44:07.506Z,1.10
2018-08-09T23:49:00.903Z,1.10
2018-08-09T23:53:54.278Z,1.15
2018-08-09T23:58:47.689Z,1.15
